Flight Track Log - Related Links

Times and Time Zones

All times are in EDT time to prevent confusion due to time zone crossing. See the UAE810 flight status page for this flight to view local times or setup timezone preferences in your user account.

Time Position Orientation Groundspeed Altitude Reporting Facility
EDT Latitude Longitude Course Direction KTS MPH feet Rate Location/Type
Thu 11:15:00 AM 24.5675 39.8503 84° East  Level Estimated
Thu 11:16:00 AM 24.5815 39.9955 84° East  Level Estimated
Thu 11:17:00 AM 24.5953 40.1408 84° East  Level Estimated
Thu 11:18:00 AM 24.6090 40.2861 84° East  Level Estimated
Thu 11:19:00 AM 24.6225 40.4314 84° East  Level Estimated
Thu 11:20:00 AM 24.6359 40.5768 84° East  Level Estimated
Thu 11:21:00 AM 24.6492 40.7222 84° East  Level Estimated
Thu 11:22:00 AM 24.6623 40.8676 84° East  Level Estimated
Thu 11:23:00 AM 24.6753 41.0131 84° East  Level Estimated
Thu 11:24:00 AM 24.6882 41.1586 84° East  Level Estimated
Thu 11:25:00 AM 24.7009 41.3041 84° East  Level Estimated
Thu 11:26:00 AM 24.7134 41.4496 85° East  Level Estimated
Thu 11:27:00 AM 24.7258 41.5952 85° East  Level Estimated
Thu 11:28:00 AM 24.7381 41.7408 85° East  Level Estimated
Thu 11:29:00 AM 24.7503 41.8865 85° East  Level Estimated
Thu 11:30:00 AM 24.7623 42.0321 85° East  Level Estimated
Thu 11:31:00 AM 24.7741 42.1778 85° East  Level Estimated
Thu 11:32:00 AM 24.7843 42.3046 85° East  Level Estimated
Thu 11:33:00 AM 24.7944 42.4314 85° East  Level Estimated
Thu 11:34:00 AM 24.8044 42.5582 85° East  Level Estimated
Thu 11:35:00 AM 24.8143 42.6850 85° East  Level Estimated
Thu 11:36:00 AM 24.8241 42.8119 85° East  Level Estimated
Thu 11:37:00 AM 24.8337 42.9387 85° East  Level Estimated
Thu 11:38:00 AM 24.8433 43.0656 85° East  Level Estimated
Thu 11:39:00 AM 24.8528 43.1925 85° East  Level Estimated
Thu 11:40:00 AM 24.8621 43.3194 85° East  Level Estimated
Thu 11:41:00 AM 24.8713 43.4464 85° East  Level Estimated
Thu 11:42:00 AM 24.8805 43.5733 85° East  Level Estimated
Thu 11:43:00 AM 24.8895 43.7003 85° East  Level Estimated
Thu 11:44:00 AM 24.8984 43.8273 86° East  Level Estimated
Thu 11:45:00 AM 24.9072 43.9543 86° East  Level Estimated
Thu 11:46:00 AM 24.9159 44.0814 86° East  Level Estimated
Thu 11:47:00 AM 24.9245 44.2084 86° East  Level Estimated
Thu 11:48:00 AM 24.9330 44.3355 86° East  Level Estimated
Thu 11:49:00 AM 24.9414 44.4626 86° East  Level Estimated
Thu 11:50:00 AM 24.9497 44.5897 86° East  Level Estimated
Thu 11:51:00 AM 24.9578 44.7168 86° East  Level Estimated
Thu 11:52:00 AM 24.9659 44.8439 86° East  Level Estimated
Thu 11:53:00 AM 24.9738 44.9711 86° East  Level Estimated
Thu 11:54:00 AM 24.9817 45.0983 86° East  Level Estimated
Thu 11:55:00 AM 24.9894 45.2255 86° East  Level Estimated
Thu 11:56:00 AM 24.9970 45.3527 86° East  Level Estimated
Thu 11:57:00 AM 25.0045 45.4799 86° East  Level Estimated
Thu 11:58:00 AM 25.0119 45.6071 86° East  Level Estimated
Thu 11:59:00 AM 25.0192 45.7344 86° East  Level Estimated
Thu 12:00:00 PM 25.0264 45.8616 86° East  Level Estimated
Thu 12:01:00 PM 25.0335 45.9889 86° East  Level Estimated
Thu 12:02:00 PM 25.0405 46.1162 87° East  Level Estimated
Thu 12:03:00 PM 25.0473 46.2435 87° East  Level Estimated
Thu 12:04:00 PM 25.0541 46.3708 87° East  Level Estimated
Thu 12:05:00 PM 25.0607 46.4982 87° East  Level Estimated
Thu 12:06:00 PM 25.0673 46.6255 87° East  Level Estimated
Thu 12:07:00 PM 25.0737 46.7529 87° East  Level Estimated
Thu 12:08:00 PM 25.0800 46.8803 87° East  Level Estimated
Thu 12:09:00 PM 25.0863 47.0077 87° East  Level Estimated
Thu 12:10:00 PM 25.0924 47.1351 87° East  Level Estimated
Thu 12:11:00 PM 25.0984 47.2625 87° East  Level Estimated
Thu 12:11:30 PM 27.0408 49.2979 90° East 627 722 37,000  Level FlightAware ADS-B (OBBI / BAH)
Thu 12:11:59 PM 27.0396 49.3945 90° East 627 722 37,000  Level FlightAware ADS-B (OBBI / BAH)
Thu 12:12:00 PM 25.1042 47.3899 87° East  Level Estimated
Thu 12:12:28 PM 27.0392 49.4754 89° East 628 723 37,000  Level FlightAware ADS-B (OBBI / BAH)
Thu 12:12:59 PM 27.0409 49.5891 88° East 629 724 37,000  Level FlightAware ADS-B (OBBI / BAH)
Thu 12:13:16 PM 27.0418 49.6379 88° East 630 725 37,000  Level FlightAware ADS-B (OBBI / BAH)
Thu 12:13:59 PM 27.0441 49.7829 89° East 629 724 37,000  Level FlightAware ADS-B (OBBI / BAH)
Thu 12:14:29 PM 27.0452 49.8796 89° East 628 723 37,000  Level FlightAware ADS-B (OBBI / BAH)
Thu 12:15:00 PM 27.0461 49.9795 89° East 627 722 37,000  Level FlightAware ADS-B (OBBI / BAH)
Thu 12:15:29 PM 27.0469 50.0762 89° East 628 723 37,000  Level FlightAware ADS-B (OBBI / BAH)
Thu 12:15:59 PM 27.0475 50.1488 89° East 628 723 37,000  Level FlightAware ADS-B (OBBI / BAH)
Thu 12:16:30 PM 27.0485 50.2694 89° East 627 722 37,000  Level FlightAware ADS-B (OBBI / BAH)
Thu 12:16:59 PM 27.0491 50.3679 90° East 627 722 37,000  Level FlightAware ADS-B (OBBI / BAH)
Thu 12:17:19 PM 27.0403 50.4305 107° East 614 707 37,000  Level FlightAware ADS-B (OBBI / BAH)
Thu 12:18:00 PM 26.9939 50.5468 116° Southeast 605 696 37,000  Level FlightAware ADS-B (OBBI / BAH)
Thu 12:18:30 PM 26.9584 50.6285 115° Southeast 607 699 37,000  Level FlightAware ADS-B (OBBI / BAH)
Thu 12:19:00 PM 26.9218 50.7172 114° Southeast 612 704 37,000  Level FlightAware ADS-B (OBBI / BAH)
Thu 12:19:30 PM 26.8880 50.8021 113° Southeast 613 705 37,000  Level FlightAware ADS-B (OBBI / BAH)
Thu 12:19:59 PM 26.8537 50.8899 113° Southeast 615 708 37,000  Level FlightAware ADS-B (OBBI / BAH)
Thu 12:20:29 PM 26.8199 50.9774 113° Southeast 616 709 37,000  Level FlightAware ADS-B (OBBI / BAH)
Thu 12:20:54 PM 26.7945 51.0441 112° Southeast 617 710 37,000  Level FlightAware ADS-B (OBBI / BAH)
Thu 12:21:35 PM 26.7647 51.1284 110° East 622 716 37,000  Level FlightAware ADS-B (OBBI / BAH)
Thu 12:24:00 PM 26.6657 51.4207 111° Southeast  Level Estimated
Thu 12:25:00 PM 26.6246 51.5415 111° Southeast  Level Estimated
Thu 12:26:00 PM 26.5833 51.6623 111° Southeast  Level Estimated
Thu 12:27:00 PM 26.5420 51.7829 111° Southeast  Level Estimated
Thu 12:28:00 PM 26.5006 51.9034 111° Southeast  Level Estimated
Thu 12:29:00 PM 26.4590 52.0239 111° Southeast  Level Estimated
Thu 12:30:00 PM 26.4174 52.1443 111° Southeast  Level Estimated
Thu 12:31:00 PM 26.3757 52.2645 111° Southeast  Level Estimated
Thu 12:32:00 PM 26.3338 52.3847 111° Southeast  Level Estimated
Thu 12:33:00 PM 26.2919 52.5048 111° Southeast  Level Estimated
Thu 12:34:00 PM 26.2498 52.6249 111° Southeast  Level Estimated
Thu 12:35:00 PM 26.2077 52.7448 111° Southeast  Level Estimated
Thu 12:36:00 PM 26.1655 52.8647 111° Southeast  Level Estimated
Thu 12:37:00 PM 26.1231 52.9844 111° Southeast  Level Estimated
Thu 12:38:00 PM 26.0807 53.1041 112° Southeast  Level Estimated
Thu 12:39:00 PM 26.0382 53.2237 112° Southeast  Level Estimated
Thu 12:40:00 PM 25.9956 53.3432 112° Southeast  Level Estimated
Thu 12:41:00 PM 25.9528 53.4626 112° Southeast  Level Estimated
Thu 12:42:00 PM 25.9100 53.5819 112° Southeast  Level Estimated
Thu 12:43:00 PM 25.8671 53.7012 112° Southeast  Level Estimated
Thu 12:44:00 PM 25.8241 53.8203 112° Southeast  Level Estimated
Thu 12:45:00 PM 25.7809 53.9394 112° Southeast  Level Estimated
Thu 12:46:00 PM 25.7377 54.0584 112° Southeast  Level Estimated
Thu 12:47:00 PM 25.6944 54.1773 112° Southeast  Level Estimated
Thu 12:48:00 PM 25.6510 54.2961 112° Southeast  Level Estimated
Thu 12:49:00 PM 25.6075 54.4148 112° Southeast  Level Estimated
Thu 12:50:00 PM 25.5653 54.5297 112° Southeast  Level Estimated
Thu 12:51:00 PM 25.5230 54.6445 112° Southeast  Level Estimated
Thu 12:52:00 PM 25.4806 54.7593 112° Southeast  Level Estimated
Thu 12:53:00 PM 25.4381 54.8739 112° Southeast  Level Estimated
Thu 12:54:00 PM 25.3955 54.9885 112° Southeast  Level Estimated
Thu 12:55:00 PM 25.3528 55.1030 112° Southeast  Level Estimated
Thu 12:56:00 PM 25.3101 55.2174 112° Southeast  Level Estimated
Thu 12:57:00 PM 25.2672 55.3317 112° Southeast  Level Estimated
Thu 12:58:00 PM 25.2550 55.3643 113° Southeast  Level Estimated
Thu 12:59:00 PM 25.2550 55.3643 North  Level Estimated
Thu 01:00:00 PM 25.2550 55.3643 North  Level Estimated
Thu 01:01:00 PM 25.2550 55.3643 North  Level Estimated
Thu 01:02:00 PM 25.2550 55.3643 North  Level Estimated
Thu 01:03:00 PM 25.2550 55.3643 North  Level Estimated
Thu 01:04:00 PM 25.2550 55.3643 North  Level Estimated
Thu 01:05:00 PM 25.2550 55.3643 North  Level Estimated
Thu 01:06:00 PM 25.2550 55.3643 North  Level Estimated
Thu 01:07:00 PM 25.2550 55.3643 North  Level Estimated
Thu 01:08:00 PM 25.2550 55.3643 North  Level Estimated
Thu 01:09:00 PM 25.2550 55.3643 North  Level Estimated
Thu 01:10:00 PM 25.2550 55.3643 North  Level Estimated
Thu 01:11:00 PM 25.2550 55.3643 North  Level Estimated
Thu 01:12:00 PM 25.2550 55.3643 North  Level Estimated
Thu 01:13:00 PM 25.2550 55.3643 North  Level Estimated
Thu 01:14:00 PM 25.2550 55.3643 North  Level Estimated
Thu 01:15:00 PM 25.2550 55.3643 North  Level Estimated
Thu 01:16:00 PM 25.2550 55.3643 North  Level Estimated
Thu 01:17:00 PM 25.2550 55.3643 North  Level Estimated
Thu 01:18:00 PM 25.2550 55.3643 North  Level Estimated
Thu 01:19:00 PM 25.2550 55.3643 North  Level Estimated
Thu 01:20:00 PM 25.2550 55.3643 North  Level Estimated
Thu 01:21:00 PM 25.2550 55.3643 North  Level Estimated
Thu 01:22:00 PM 25.2550 55.3643 North  Level Estimated

Login

Don't have an account? Register now (free) for customized features, flight alerts, and more!